Time;durP1;ratioP1;P1;durP2;ratioP2;P2;SDS_P1;SDS_P2;PMS_P1;PMS_P2;Temp;Humidity;BMP_temperature;BMP_pressure;BME280_temperature;BME280_humidity;BME280_pressure;Samples;Min_cycle;Max_cycle;Signal;HPM_P1;HPM_P2
2023/12/28 00:00:25;;;;;;;62.22;25.55;;;;;;;4.79;73.49;96308.84;5015823;28;20195;-86
2023/12/28 00:02:50;;;;;;;59.13;27.33;;;;;;;4.83;73.41;96312.66;5014599;28;20036;-86
2023/12/28 00:05:16;;;;;;;65.18;25.67;;;;;;;4.42;73.43;96254.47;5034005;28;20041;-85
2023/12/28 00:07:41;;;;;;;61.65;27.20;;;;;;;4.80;72.96;96315.72;5015614;28;20033;-86
2023/12/28 00:10:07;;;;;;;57.80;26.77;;;;;;;4.41;73.55;96268.59;5033120;28;20061;-85
2023/12/28 00:12:33;;;;;;;67.25;27.48;;;;;;;4.78;73.04;96340.59;5016368;28;20037;-86
2023/12/28 00:14:58;;;;;;;63.80;27.30;;;;;;;3.43;73.10;96134.06;5017157;28;20033;-86
2023/12/28 00:17:24;;;;;;;61.47;26.98;;;;;;;3.94;73.56;96212.81;5015950;28;20033;-85
2023/12/28 00:19:49;;;;;;;59.97;26.70;;;;;;;4.68;74.09;96353.38;5019322;28;20037;-85
2023/12/28 00:22:15;;;;;;;65.97;27.35;;;;;;;4.15;73.98;96274.75;5054222;28;20110;-86
2023/12/28 00:24:40;;;;;;;60.88;27.23;;;;;;;4.41;73.93;96329.00;5054849;28;20408;-86
2023/12/28 00:27:06;;;;;;;62.53;27.73;;;;;;;3.86;74.13;96253.22;5038463;28;20420;-86
2023/12/28 00:29:32;;;;;;;55.83;24.35;;;;;;;4.33;74.18;96329.22;5045994;28;20134;-85
2023/12/28 00:31:57;;;;;;;56.65;24.65;;;;;;;4.24;74.43;96305.81;5053543;28;20033;-85
2023/12/28 00:34:23;;;;;;;64.82;24.58;;;;;;;3.84;74.58;96255.22;5050992;28;20032;-83
2023/12/28 00:36:48;;;;;;;68.70;25.98;;;;;;;4.08;74.45;96295.75;5056217;28;20040;-83
2023/12/28 00:39:15;;;;;;;62.85;25.88;;;;;;;4.23;74.22;96306.03;5055675;28;20419;-83
2023/12/28 00:41:40;;;;;;;67.22;26.52;;;;;;;3.75;74.38;96242.50;5036696;28;20025;-83
2023/12/28 00:44:09;;;;;;;69.20;26.48;;;;;;;4.56;74.76;96368.97;5036662;28;20036;-83
2023/12/28 00:46:35;;;;;;;57.20;24.30;;;;;;;3.97;74.50;96271.97;5036447;28;20454;-83
2023/12/28 00:49:01;;;;;;;57.90;24.15;;;;;;;4.58;74.23;96364.31;5035467;28;20143;-83
2023/12/28 00:51:26;;;;;;;64.43;25.92;;;;;;;4.47;74.03;96354.44;5053965;28;20041;-83
2023/12/28 00:53:52;;;;;;;57.33;24.70;;;;;;;4.34;73.79;96334.28;5035943;28;20553;-85
2023/12/28 00:56:18;;;;;;;59.28;25.02;;;;;;;4.54;73.90;96371.00;5035129;28;20079;-83
2023/12/28 00:58:43;;;;;;;63.47;24.85;;;;;;;4.48;73.71;96372.63;5034765;28;20119;-84
2023/12/28 01:01:09;;;;;;;57.22;24.48;;;;;;;3.94;73.44;96291.56;5053096;28;20112;-83
2023/12/28 01:03:35;;;;;;;55.35;23.15;;;;;;;4.22;73.88;96341.97;5035515;28;20037;-83
2023/12/28 01:06:00;;;;;;;57.40;23.67;;;;;;;3.88;73.52;96289.75;5035406;28;20151;-84
2023/12/28 01:08:26;;;;;;;44.60;20.77;;;;;;;3.79;73.94;96307.53;5053309;28;20037;-83
2023/12/28 01:10:52;;;;;;;50.35;23.10;;;;;;;4.20;73.58;96356.31;5035670;28;20116;-83
2023/12/28 01:13:17;;;;;;;47.40;21.25;;;;;;;4.26;74.00;96377.34;5035411;28;20045;-83
2023/12/28 01:15:44;;;;;;;49.78;21.70;;;;;;;2.97;74.19;96174.22;5053393;28;20037;-83
2023/12/28 01:18:09;;;;;;;53.78;22.38;;;;;;;3.35;73.74;96218.97;5034917;28;20132;-83
2023/12/28 01:20:35;;;;;;;49.50;21.45;;;;;;;3.83;73.81;96308.72;5053068;28;20068;-84
2023/12/28 01:23:01;;;;;;;54.42;21.30;;;;;;;3.79;73.64;96298.84;5035013;28;20036;-83
2023/12/28 01:25:26;;;;;;;52.90;22.60;;;;;;;3.69;73.63;96277.44;5036674;28;20067;-83
2023/12/28 01:27:52;;;;;;;54.75;21.83;;;;;;;3.69;73.47;96283.50;5037108;28;20036;-83
2023/12/28 01:30:18;;;;;;;60.53;23.10;;;;;;;3.68;73.28;96281.06;5035127;28;20071;-83
2023/12/28 01:32:43;;;;;;;41.60;20.58;;;;;;;3.03;73.27;96175.22;5035647;28;20476;-84
2023/12/28 01:35:09;;;;;;;49.92;20.15;;;;;;;4.09;73.41;96347.25;5035793;28;20060;-83
2023/12/28 01:37:34;;;;;;;39.97;20.55;;;;;;;3.47;73.22;96253.25;5036042;28;20033;-83
2023/12/28 01:40:00;;;;;;;46.67;19.65;;;;;;;3.24;73.21;96226.63;5054663;28;20174;-83
2023/12/28 01:42:26;;;;;;;45.28;20.88;;;;;;;3.50;73.60;96260.72;5035618;28;20037;-83
2023/12/28 01:44:52;;;;;;;48.88;20.20;;;;;;;3.52;73.46;96266.56;5054955;28;20041;-88
2023/12/28 01:47:18;;;;;;;50.70;21.02;;;;;;;3.86;73.73;96323.25;5039656;28;20039;-86
2023/12/28 01:49:44;;;;;;;46.78;19.98;;;;;;;4.26;73.30;96368.66;5039931;28;20032;-87
2023/12/28 01:52:10;;;;;;;48.45;20.60;;;;;;;4.11;73.43;96350.50;5041051;28;20033;-88
2023/12/28 01:54:37;;;;;;;51.15;21.35;;;;;;;4.18;73.40;96360.97;5040526;28;20043;-87
2023/12/28 01:57:04;;;;;;;42.83;18.23;;;;;;;3.84;73.28;96317.38;5058583;28;20411;-87
2023/12/28 01:59:31;;;;;;;40.80;18.38;;;;;;;3.78;72.82;96305.91;5042199;28;20098;-87
2023/12/28 02:01:57;;;;;;;41.33;18.88;;;;;;;3.52;72.72;96271.00;5042665;28;20037;-88
2023/12/28 02:04:27;;;;;;;47.58;18.83;;;;;;;3.47;73.03;96269.00;5028644;28;20427;-81
2023/12/28 02:06:58;;;;;;;43.67;19.10;;;;;;;4.00;72.80;96343.22;5020042;28;20037;-81
2023/12/28 02:09:24;;;;;;;41.00;18.40;;;;;;;4.13;72.82;96364.19;5017037;28;20607;-82
2023/12/28 02:11:49;;;;;;;41.75;17.33;;;;;;;3.98;73.04;96331.31;5016033;28;20045;-80
2023/12/28 02:14:15;;;;;;;40.70;17.88;;;;;;;3.77;72.87;96314.78;5017608;28;20068;-81
2023/12/28 02:16:46;;;;;;;41.17;17.73;;;;;;;3.15;73.20;96210.31;5017609;28;20038;-80
2023/12/28 02:19:30;;;;;;;44.20;18.27;;;;;;;3.86;72.92;96323.25;5017532;28;20073;-81
2023/12/28 02:21:59;;;;;;;54.33;16.63;;;;;;;3.19;72.96;96215.97;5017313;28;20038;-81
2023/12/28 02:24:24;;;;;;;50.35;16.65;;;;;;;3.73;72.72;96308.34;5016230;28;20188;-81
2023/12/28 02:26:50;;;;;;;44.85;17.63;;;;;;;3.75;73.05;96306.28;5017845;28;20033;-80
2023/12/28 02:29:15;;;;;;;37.90;16.92;;;;;;;3.63;72.71;96299.25;5017368;28;20487;-81
2023/12/28 02:31:51;;;;;;;39.28;17.15;;;;;;;3.32;72.56;96263.13;5019888;28;20042;-81
2023/12/28 02:34:28;;;;;;;39.05;16.73;;;;;;;3.70;72.86;96331.53;5018226;28;20050;-81
2023/12/28 02:36:56;;;;;;;39.72;18.00;;;;;;;3.82;72.81;96358.75;5019506;28;20029;-81
2023/12/28 02:39:23;;;;;;;44.83;17.08;;;;;;;3.24;72.92;96255.47;5018250;28;20038;-81
2023/12/28 02:41:49;;;;;;;32.20;17.17;;;;;;;3.54;73.05;96300.47;5018074;28;20519;-80
2023/12/28 02:44:14;;;;;;;44.25;18.55;;;;;;;3.75;73.05;96345.66;5018823;28;20136;-80
2023/12/28 02:46:40;;;;;;;37.22;16.45;;;;;;;3.29;72.43;96248.59;5017670;28;20033;-80
2023/12/28 02:49:06;;;;;;;50.67;22.95;;;;;;;3.33;72.56;96259.50;5018263;28;20045;-80
2023/12/28 02:51:31;;;;;;;54.22;21.65;;;;;;;3.46;72.52;96296.22;5016923;28;20064;-81
2023/12/28 02:53:57;;;;;;;44.53;21.27;;;;;;;3.42;72.41;96300.25;5018564;28;20040;-89
2023/12/28 02:56:22;;;;;;;45.30;22.85;;;;;;;3.62;72.68;96337.78;5017670;28;20490;-88
2023/12/28 02:58:48;;;;;;;48.25;21.73;;;;;;;3.15;72.69;96267.97;5017121;28;20037;-88
2023/12/28 03:01:13;;;;;;;66.63;25.52;;;;;;;2.13;72.84;96118.94;5018886;28;20037;-87
2023/12/28 03:03:39;;;;;;;54.38;25.17;;;;;;;3.06;73.09;96249.00;5019129;28;20041;-87
2023/12/28 03:06:05;;;;;;;63.47;25.95;;;;;;;1.89;73.46;96078.41;5016689;28;20068;-87
2023/12/28 03:08:30;;;;;;;55.50;26.42;;;;;;;0.29;73.02;95810.78;5019633;28;20080;-88
2023/12/28 03:10:56;;;;;;;56.75;26.88;;;;;;;1.01;73.57;95927.72;5019611;28;20022;-87
2023/12/28 03:13:21;;;;;;;64.07;29.58;;;;;;;3.04;72.93;96226.63;5020482;28;20432;-87
2023/12/28 03:15:47;;;;;;;57.58;25.75;;;;;;;1.50;72.79;96002.47;5017966;28;20021;-83
2023/12/28 03:18:12;;;;;;;59.17;26.83;;;;;;;3.52;73.06;96316.38;5016839;28;20029;-83
2023/12/28 03:20:38;;;;;;;56.70;25.65;;;;;;;2.94;72.84;96232.25;5017476;28;20130;-83
2023/12/28 03:23:04;;;;;;;62.95;27.13;;;;;;;3.50;72.70;96321.06;5035684;28;20026;-84
2023/12/28 03:25:29;;;;;;;58.80;26.23;;;;;;;2.69;72.75;96176.19;5017320;28;20496;-84
2023/12/28 03:27:55;;;;;;;66.75;25.88;;;;;;;2.73;72.57;96198.38;5017219;28;20033;-83
2023/12/28 03:30:20;;;;;;;69.35;28.38;;;;;;;3.41;73.08;96304.69;5017666;28;20033;-83
2023/12/28 03:32:46;;;;;;;55.38;26.00;;;;;;;2.70;73.16;96194.34;5017124;28;20132;-83
2023/12/28 03:35:12;;;;;;;62.80;29.15;;;;;;;3.12;73.21;96278.06;5034264;28;20057;-83
2023/12/28 03:37:37;;;;;;;87.85;35.10;;;;;;;2.97;73.03;96286.09;5017588;28;20458;-83
2023/12/28 03:40:04;;;;;;;88.43;37.03;;;;;;;2.63;73.81;96255.56;5016963;28;20034;-82
2023/12/28 03:42:30;;;;;;;78.43;32.35;;;;;;;3.17;73.65;96322.81;5016650;28;20037;-83
2023/12/28 03:44:55;;;;;;;80.78;34.17;;;;;;;3.44;73.50;96358.53;5016932;28;20128;-83
2023/12/28 03:47:21;;;;;;;77.90;33.47;;;;;;;2.43;73.20;96203.16;5034966;28;20060;-83
2023/12/28 03:49:46;;;;;;;75.50;32.90;;;;;;;3.21;72.74;96334.50;5016888;28;20026;-84
2023/12/28 03:52:12;;;;;;;66.13;32.08;;;;;;;3.14;72.85;96344.97;5016378;28;20091;-83
2023/12/28 03:54:39;;;;;;;66.85;28.80;;;;;;;3.14;73.17;96355.47;5017314;28;20036;-83
2023/12/28 03:57:05;;;;;;;73.68;32.30;;;;;;;3.11;73.02;96348.00;5034708;28;20033;-83
2023/12/28 03:59:30;;;;;;;64.55;29.90;;;;;;;2.94;73.08;96325.78;5016447;28;20037;-83
2023/12/28 04:01:56;;;;;;;72.57;31.80;;;;;;;2.65;73.87;96321.69;5035309;28;20068;-83
2023/12/28 04:04:21;;;;;;;74.28;33.00;;;;;;;2.68;73.61;96314.22;5035629;28;20088;-87
2023/12/28 04:06:47;;;;;;;81.30;32.95;;;;;;;1.97;73.47;96191.72;5038705;28;20116;-87
2023/12/28 04:09:13;;;;;;;69.35;30.55;;;;;;;3.12;73.33;96364.56;5024270;28;20046;-88
2023/12/28 04:11:38;;;;;;;77.63;31.88;;;;;;;3.07;73.38;96365.94;5024934;28;20056;-88
2023/12/28 04:14:04;;;;;;;62.97;29.75;;;;;;;1.88;72.81;96191.09;5021963;28;20029;-87
2023/12/28 04:16:29;;;;;;;77.47;31.77;;;;;;;2.94;73.11;96373.75;5021747;28;20048;-88
2023/12/28 04:18:55;;;;;;;71.18;30.63;;;;;;;2.89;73.34;96351.78;5022651;28;20045;-87
2023/12/28 04:21:21;;;;;;;63.90;30.60;;;;;;;2.64;73.85;96327.91;5022332;28;20040;-87
2023/12/28 04:23:47;;;;;;;65.78;29.65;;;;;;;2.64;73.86;96344.44;5022919;28;20041;-83
2023/12/28 04:26:13;;;;;;;72.20;30.40;;;;;;;2.07;73.88;96239.25;5016359;28;20511;-86
2023/12/28 04:28:39;;;;;;;66.32;30.85;;;;;;;2.35;73.90;96283.69;5016378;28;20026;-86
2023/12/28 04:31:05;;;;;;;64.55;30.95;;;;;;;2.80;73.73;96350.34;5033873;28;20492;-86
2023/12/28 04:33:32;;;;;;;71.05;29.50;;;;;;;2.83;73.72;96345.50;5034609;28;20029;-86
2023/12/28 04:36:00;;;;;;;74.65;30.67;;;;;;;2.13;73.61;96241.13;5016287;28;20041;-86
2023/12/28 04:38:26;;;;;;;65.32;28.67;;;;;;;2.33;73.32;96282.06;5016487;28;20029;-86
2023/12/28 04:40:52;;;;;;;68.63;31.42;;;;;;;2.85;73.91;96372.31;5019840;28;20041;-85
2023/12/28 04:43:18;;;;;;;65.90;30.05;;;;;;;2.89;74.07;96368.31;5036900;28;20044;-86
2023/12/28 04:45:43;;;;;;;60.65;28.35;;;;;;;2.08;73.90;96230.41;5035895;28;20041;-86
2023/12/28 04:48:09;;;;;;;62.15;28.90;;;;;;;2.59;73.82;96325.09;5035102;28;20041;-85
2023/12/28 04:50:35;;;;;;;68.97;28.77;;;;;;;2.89;73.55;96375.38;5017065;28;20029;-86
2023/12/28 04:53:00;;;;;;;66.03;27.48;;;;;;;2.80;73.69;96355.56;5034475;28;20524;-85
2023/12/28 04:55:26;;;;;;;58.90;27.05;;;;;;;2.09;73.39;96237.25;5034426;28;20033;-86
2023/12/28 04:57:51;;;;;;;70.32;29.05;;;;;;;2.80;73.32;96360.81;5034724;28;20095;-85
2023/12/28 05:00:17;;;;;;;61.67;26.92;;;;;;;2.59;73.20;96328.50;5034366;28;20077;-85
2023/12/28 05:02:42;;;;;;;62.28;27.90;;;;;;;2.14;74.10;96246.13;5016469;28;20037;-85
2023/12/28 05:05:10;;;;;;;70.95;27.38;;;;;;;2.26;73.67;96264.72;5034284;28;20468;-86
2023/12/28 05:07:35;;;;;;;60.78;27.33;;;;;;;2.27;73.76;96256.69;5034448;28;20064;-85
2023/12/28 05:10:01;;;;;;;61.65;26.75;;;;;;;2.23;73.65;96262.47;5034066;28;20053;-85
2023/12/28 05:12:26;;;;;;;61.53;26.83;;;;;;;2.83;73.69;96349.94;5016006;28;20041;-86
2023/12/28 05:14:52;;;;;;;63.40;29.70;;;;;;;2.74;73.50;96317.88;5033678;28;20040;-83
2023/12/28 05:17:18;;;;;;;77.43;31.70;;;;;;;3.00;73.74;96372.16;5033356;28;20237;-83
2023/12/28 05:19:44;;;;;;;65.93;29.50;;;;;;;1.78;73.88;96173.13;5033361;28;20095;-83
2023/12/28 05:22:10;;;;;;;80.43;33.72;;;;;;;2.11;73.58;96225.59;5015227;28;20440;-83
2023/12/28 05:24:36;;;;;;;82.43;33.63;;;;;;;3.01;73.96;96371.97;5016048;28;20037;-83
2023/12/28 05:27:02;;;;;;;86.32;37.13;;;;;;;2.67;74.18;96340.63;5034191;28;20044;-83
2023/12/28 05:29:28;;;;;;;75.25;34.28;;;;;;;1.60;73.92;96151.94;5034183;28;20034;-83
2023/12/28 05:31:53;;;;;;;82.80;34.80;;;;;;;3.04;74.08;96383.88;5016236;28;20528;-83
2023/12/28 05:34:19;;;;;;;72.90;32.85;;;;;;;2.28;74.01;96260.91;5016397;28;20038;-87
2023/12/28 05:36:45;;;;;;;77.70;33.15;;;;;;;2.70;74.46;96324.50;5019492;28;20041;-88
2023/12/28 05:39:13;;;;;;;79.72;34.33;;;;;;;3.02;73.75;96381.47;5018619;28;20041;-86
2023/12/28 05:41:39;;;;;;;82.60;31.98;;;;;;;1.93;74.31;96207.81;5019818;28;20086;-87
2023/12/28 05:44:05;;;;;;;83.60;31.60;;;;;;;3.06;74.14;96392.34;5036649;28;20041;-86
2023/12/28 05:46:30;;;;;;;77.88;34.35;;;;;;;2.77;74.47;96346.28;5019932;28;20037;-88
2023/12/28 05:48:56;;;;;;;76.90;32.88;;;;;;;3.10;74.03;96394.38;5037092;28;20037;-88
2023/12/28 05:51:22;;;;;;;74.05;33.13;;;;;;;2.53;74.89;96342.34;5037236;28;20041;-87
2023/12/28 05:53:47;;;;;;;81.28;33.60;;;;;;;2.49;74.91;96327.25;5018927;28;20029;-88
2023/12/28 05:56:13;;;;;;;77.07;33.58;;;;;;;2.51;74.73;96336.53;5018460;28;20041;-88
2023/12/28 05:58:38;;;;;;;77.40;33.40;;;;;;;2.57;74.53;96333.13;5018177;28;20030;-87
2023/12/28 06:01:07;;;;;;;80.18;35.42;;;;;;;2.03;74.40;96251.94;5018704;28;20034;-87
2023/12/28 06:03:33;;;;;;;70.80;33.75;;;;;;;2.46;74.68;96323.19;5018667;28;20029;-87
2023/12/28 06:05:59;;;;;;;79.97;33.25;;;;;;;1.90;74.84;96233.56;5037925;28;20105;-88
2023/12/28 06:08:24;;;;;;;69.80;31.85;;;;;;;2.44;74.69;96327.81;5021013;28;20098;-88
2023/12/28 06:10:50;;;;;;;68.75;31.92;;;;;;;2.38;74.72;96330.41;5019265;28;20029;-87
2023/12/28 06:13:15;;;;;;;76.80;33.30;;;;;;;1.27;74.39;96170.03;5019238;28;20033;-88
2023/12/28 06:15:41;;;;;;;88.47;34.45;;;;;;;2.75;75.50;96405.91;5020293;28;20515;-84
2023/12/28 06:18:07;;;;;;;79.47;33.22;;;;;;;2.23;75.47;96317.44;5038464;28;20061;-87
2023/12/28 06:20:33;;;;;;;75.32;33.75;;;;;;;2.78;75.83;96410.78;5020375;28;20037;-88
2023/12/28 06:22:58;;;;;;;71.95;32.42;;;;;;;2.88;75.21;96411.25;5019947;28;20183;-87
2023/12/28 06:25:24;;;;;;;90.18;33.35;;;;;;;2.56;75.61;96364.75;5037837;28;20037;-86
2023/12/28 06:27:49;;;;;;;77.97;32.00;;;;;;;2.31;75.67;96310.25;5020210;28;20037;-87
2023/12/28 06:30:17;;;;;;;80.57;33.95;;;;;;;2.29;75.29;96311.44;5038112;28;20037;-88
2023/12/28 06:32:43;;;;;;;75.07;32.70;;;;;;;2.75;75.01;96371.88;5020198;28;20101;-88
2023/12/28 06:35:09;;;;;;;82.35;34.17;;;;;;;2.74;75.32;96369.47;5020246;28;20076;-88
2023/12/28 06:37:34;;;;;;;71.25;31.83;;;;;;;2.70;75.02;96361.19;5036901;28;20045;-87
2023/12/28 06:40:00;;;;;;;86.28;34.28;;;;;;;2.38;75.38;96305.03;5018377;28;20096;-86
2023/12/28 06:42:26;;;;;;;81.60;32.92;;;;;;;2.92;75.10;96394.09;5019279;28;20128;-88
2023/12/28 06:44:51;;;;;;;79.85;34.10;;;;;;;2.65;75.10;96346.06;5019330;28;20049;-88
2023/12/28 06:47:17;;;;;;;77.93;33.70;;;;;;;2.08;75.28;96253.94;5023080;28;20037;-86
2023/12/28 06:49:42;;;;;;;81.18;34.97;;;;;;;1.23;75.09;96118.31;5047282;28;20120;-86
2023/12/28 06:52:08;;;;;;;86.82;35.03;;;;;;;2.00;75.40;96249.69;5056387;28;20057;-89
2023/12/28 06:54:33;;;;;;;84.50;33.65;;;;;;;2.73;75.48;96363.41;5042117;28;20038;-87
2023/12/28 06:56:59;;;;;;;81.72;37.45;;;;;;;2.78;75.11;96352.34;5029312;28;20456;-88
2023/12/28 06:59:25;;;;;;;92.63;37.33;;;;;;;2.74;75.25;96351.94;5043511;28;20561;-88
2023/12/28 07:01:50;;;;;;;71.50;33.83;;;;;;;0.67;74.72;96040.84;5042538;28;20037;-88
2023/12/28 07:04:16;;;;;;;86.18;35.28;;;;;;;2.75;75.43;96358.75;5042005;28;20534;-87
2023/12/28 07:06:41;;;;;;;79.72;35.20;;;;;;;2.10;74.89;96255.38;5044292;28;20065;-88
2023/12/28 07:09:07;;;;;;;73.00;34.45;;;;;;;2.90;75.19;96375.16;5044809;28;20053;-89
2023/12/28 07:11:32;;;;;;;80.18;35.50;;;;;;;3.34;75.05;96426.31;5061945;28;20054;-87
2023/12/28 07:13:58;;;;;;;80.57;35.10;;;;;;;2.84;75.28;96352.34;5044701;28;20080;-88
2023/12/28 07:16:24;;;;;;;78.28;34.70;;;;;;;1.47;74.88;96131.75;5060818;28;20067;-89
2023/12/28 07:18:49;;;;;;;102.32;38.92;;;;;;;3.29;75.07;96411.16;5038855;28;20056;-82
2023/12/28 07:21:15;;;;;;;93.05;38.20;;;;;;;2.59;75.44;96285.81;5025452;28;20052;-82
2023/12/28 07:23:40;;;;;;;80.47;34.42;;;;;;;2.75;75.18;96316.84;5017632;28;20455;-81
2023/12/28 07:26:06;;;;;;;84.47;36.45;;;;;;;2.99;75.36;96342.53;5017686;28;20037;-82
2023/12/28 07:28:31;;;;;;;103.45;36.08;;;;;;;3.53;75.27;96419.50;5017951;28;20519;-81
2023/12/28 07:30:57;;;;;;;78.45;35.92;;;;;;;2.93;75.46;96316.31;5017581;28;20135;-82
2023/12/28 07:33:23;;;;;;;72.88;35.92;;;;;;;3.46;75.04;96407.19;5018373;28;20492;-81
2023/12/28 07:35:48;;;;;;;79.47;36.30;;;;;;;3.34;74.70;96393.03;5019185;28;20037;-86
2023/12/28 07:38:15;;;;;;;88.30;35.75;;;;;;;2.75;75.19;96302.97;5037162;28;20033;-86
2023/12/28 07:40:40;;;;;;;81.32;37.40;;;;;;;2.36;75.57;96243.41;5038323;28;20040;-87
2023/12/28 07:43:06;;;;;;;77.68;36.50;;;;;;;3.06;74.75;96339.91;5038249;28;20037;-86
2023/12/28 07:45:32;;;;;;;89.80;39.28;;;;;;;2.91;74.85;96313.06;5038521;28;20040;-86
2023/12/28 07:47:59;;;;;;;76.75;37.40;;;;;;;3.59;75.26;96432.63;5037039;28;20040;-87
2023/12/28 07:50:25;;;;;;;84.80;39.33;;;;;;;3.30;75.38;96385.75;5054947;28;20033;-86
2023/12/28 07:52:51;;;;;;;87.40;38.90;;;;;;;2.82;75.49;96320.34;5036758;28;20090;-86
2023/12/28 07:55:16;;;;;;;74.18;37.17;;;;;;;3.28;75.32;96387.78;5037484;28;20036;-81
2023/12/28 07:57:42;;;;;;;83.90;39.90;;;;;;;3.35;75.14;96393.84;5022715;28;20102;-82
2023/12/28 08:00:09;;;;;;;71.35;36.78;;;;;;;3.48;75.18;96402.56;5018624;28;20037;-83
2023/12/28 08:02:34;;;;;;;96.75;39.35;;;;;;;2.76;74.79;96287.03;5035393;28;20033;-82
2023/12/28 08:05:00;;;;;;;82.85;37.78;;;;;;;3.38;74.79;96364.59;5017591;28;20480;-82
2023/12/28 08:07:25;;;;;;;86.60;36.92;;;;;;;3.79;74.55;96443.16;5035222;28;20033;-86
2023/12/28 08:09:51;;;;;;;86.30;38.03;;;;;;;3.59;74.36;96408.19;5032987;28;20095;-85
2023/12/28 08:12:21;;;;;;;80.53;36.97;;;;;;;3.30;74.44;96349.06;5032902;28;20047;-86
2023/12/28 08:14:46;;;;;;;76.45;35.38;;;;;;;2.51;74.21;96216.09;5032892;28;20053;-86
2023/12/28 08:17:12;;;;;;;75.07;34.47;;;;;;;3.85;74.73;96416.91;5030431;28;20108;-86
2023/12/28 08:19:38;;;;;;;77.63;34.10;;;;;;;3.93;74.60;96422.97;5035842;28;20128;-85
2023/12/28 08:22:03;;;;;;;73.25;33.38;;;;;;;3.94;74.60;96421.97;5053882;28;20033;-86
2023/12/28 08:24:29;;;;;;;71.30;33.88;;;;;;;3.49;74.81;96356.16;5053927;28;20055;-86
2023/12/28 08:26:58;;;;;;;74.03;33.97;;;;;;;3.58;74.73;96356.75;5036209;28;20033;-85
2023/12/28 08:29:23;;;;;;;68.35;32.38;;;;;;;3.51;74.83;96348.88;5035922;28;20469;-86
2023/12/28 08:31:49;;;;;;;86.43;38.30;;;;;;;3.76;75.69;96417.31;5057396;28;20068;-86
2023/12/28 08:34:15;;;;;;;81.95;38.28;;;;;;;3.44;75.14;96354.09;5023983;28;20048;-85
2023/12/28 08:36:41;;;;;;;96.65;44.70;;;;;;;3.27;75.22;96318.81;5038121;28;20079;-86
2023/12/28 08:39:07;;;;;;;115.15;50.13;;;;;;;2.87;76.44;96283.84;5034272;28;20068;-86
2023/12/28 08:41:32;;;;;;;108.53;50.83;;;;;;;3.67;76.11;96385.19;5035252;28;20051;-86
2023/12/28 08:43:58;;;;;;;125.97;53.50;;;;;;;3.44;75.68;96317.41;5053124;28;20033;-86
2023/12/28 08:46:26;;;;;;;118.90;55.38;;;;;;;3.80;75.64;96353.75;5034602;28;20044;-85
2023/12/28 08:48:52;;;;;;;142.00;61.83;;;;;;;4.18;75.09;96401.19;5034867;28;20489;-86
2023/12/28 08:51:18;;;;;;;110.22;53.58;;;;;;;3.52;75.60;96287.53;5035097;28;20029;-86
2023/12/28 08:53:43;;;;;;;110.13;49.63;;;;;;;3.59;75.17;96280.47;5033272;28;20044;-85
2023/12/28 08:56:22;;;;;;;118.60;52.10;;;;;;;4.43;74.82;96390.81;5032899;28;20045;-86
2023/12/28 08:58:49;;;;;;;86.78;42.33;;;;;;;4.33;74.40;96364.19;5032124;28;20036;-86
2023/12/28 09:01:17;;;;;;;78.82;36.85;;;;;;;4.51;74.51;96390.59;5052453;28;20074;-86
2023/12/28 09:03:43;;;;;;;61.13;32.58;;;;;;;4.04;74.40;96306.88;5032460;28;20033;-86
2023/12/28 09:06:12;;;;;;;99.20;42.10;;;;;;;4.19;74.42;96317.97;5035148;28;20371;-81
2023/12/28 09:08:37;;;;;;;100.78;44.42;;;;;;;3.20;74.52;96178.25;5033522;28;20412;-81
2023/12/28 09:11:03;;;;;;;99.70;44.75;;;;;;;3.17;74.74;96184.69;5034512;28;20048;-82
2023/12/28 09:13:29;;;;;;;95.93;46.08;;;;;;;4.13;74.81;96329.25;5034624;28;20033;-82
2023/12/28 09:15:54;;;;;;;86.28;41.25;;;;;;;4.26;75.14;96352.88;5034218;28;20036;-85
2023/12/28 09:18:20;;;;;;;85.70;40.40;;;;;;;3.82;75.11;96266.91;5034009;28;20072;-86
2023/12/28 09:20:47;;;;;;;81.50;40.72;;;;;;;3.97;75.38;96311.34;5034190;28;20049;-86
2023/12/28 09:23:12;;;;;;;85.47;39.28;;;;;;;3.63;75.41;96244.97;5033512;28;20137;-87
2023/12/28 09:25:40;;;;;;;78.47;37.55;;;;;;;4.23;76.24;96343.59;5033186;28;20053;-86
2023/12/28 09:28:05;;;;;;;78.35;37.72;;;;;;;3.92;76.30;96284.88;5033294;28;20036;-86
2023/12/28 09:30:31;;;;;;;69.82;35.80;;;;;;;4.41;76.05;96345.59;5033309;28;20117;-85
2023/12/28 09:32:57;;;;;;;74.78;37.58;;;;;;;4.01;75.92;96273.16;5051647;28;20444;-86
2023/12/28 09:35:22;;;;;;;73.18;36.38;;;;;;;4.19;75.78;96296.97;5052051;28;20062;-86
2023/12/28 09:37:48;;;;;;;68.40;34.20;;;;;;;4.18;76.14;96274.34;5051983;28;20098;-86
2023/12/28 09:40:15;;;;;;;91.22;35.63;;;;;;;4.31;76.29;96316.31;5034417;28;20033;-86
2023/12/28 09:43:07;;;;;;;69.43;34.33;;;;;;;4.45;75.88;96307.38;5033326;28;20051;-86
2023/12/28 09:45:33;;;;;;;91.38;39.10;;;;;;;4.32;76.55;96303.97;5020701;28;20573;-86
2023/12/28 09:47:59;;;;;;;83.45;36.75;;;;;;;4.55;76.45;96294.59;5033808;28;20037;-86
2023/12/28 09:50:26;;;;;;;72.05;35.28;;;;;;;3.68;75.73;96155.97;5033438;28;20025;-86
2023/12/28 09:52:53;;;;;;;71.43;34.42;;;;;;;4.73;75.61;96308.91;5032457;28;20477;-86
2023/12/28 09:55:19;;;;;;;70.47;33.83;;;;;;;4.88;75.51;96309.44;5050232;28;20456;-86
2023/12/28 09:57:46;;;;;;;79.63;36.35;;;;;;;4.55;75.75;96244.69;5034765;28;20040;-86
2023/12/28 10:00:12;;;;;;;79.13;37.05;;;;;;;4.75;75.14;96267.41;5034381;28;20071;-86
2023/12/28 10:02:41;;;;;;;71.35;36.42;;;;;;;4.69;75.01;96245.44;5034204;28;20120;-87
2023/12/28 10:05:07;;;;;;;67.88;33.10;;;;;;;4.13;75.46;96158.63;5034210;28;20033;-86
2023/12/28 10:07:32;;;;;;;71.40;35.10;;;;;;;4.43;74.79;96185.94;5034655;28;20137;-86
2023/12/28 10:09:58;;;;;;;78.45;35.60;;;;;;;4.76;74.88;96225.16;5052538;28;20091;-86
2023/12/28 10:12:27;;;;;;;74.22;35.38;;;;;;;5.23;74.91;96275.63;5034456;28;20033;-85
2023/12/28 10:14:53;;;;;;;85.75;36.53;;;;;;;4.85;74.45;96197.63;5055801;28;20028;-89
2023/12/28 10:17:19;;;;;;;101.57;38.65;;;;;;;5.32;74.93;96259.38;5059491;28;20064;-88
2023/12/28 10:19:47;;;;;;;79.20;36.03;;;;;;;5.63;75.58;96232.22;5040103;28;20041;-87
2023/12/28 10:22:13;;;;;;;83.63;38.22;;;;;;;6.57;74.54;96252.06;5043291;28;20060;-90
2023/12/28 10:24:46;;;;;;;73.45;35.75;;;;;;;7.44;72.47;96226.09;5042536;28;20124;-86
2023/12/28 10:27:13;;;;;;;68.38;34.60;;;;;;;8.43;68.82;96215.34;5038562;28;20075;-86
2023/12/28 10:29:39;;;;;;;58.83;31.90;;;;;;;9.47;65.83;96233.59;5023346;28;20112;-86
2023/12/28 10:32:05;;;;;;;66.30;31.50;;;;;;;10.07;61.95;96178.06;5036243;28;20072;-86
2023/12/28 10:34:31;;;;;;;60.25;31.55;;;;;;;11.07;58.86;96190.06;5018941;28;20033;-87
2023/12/28 10:36:59;;;;;;;60.25;32.25;;;;;;;11.81;55.57;96175.03;5035558;28;20120;-87
2023/12/28 10:39:25;;;;;;;57.10;31.63;;;;;;;12.27;53.00;96138.81;5036392;28;20030;-87
2023/12/28 10:41:55;;;;;;;55.83;31.17;;;;;;;13.07;51.75;96209.31;5036263;28;20119;-87
2023/12/28 10:44:23;;;;;;;68.07;33.20;;;;;;;13.37;50.57;96176.59;5038050;28;20175;-86
2023/12/28 10:46:55;;;;;;;61.78;31.30;;;;;;;13.33;49.04;96100.94;5037416;28;20041;-87
2023/12/28 10:49:24;;;;;;;54.42;30.20;;;;;;;14.14;47.93;96196.75;5019014;28;20040;-87
2023/12/28 10:51:53;;;;;;;52.50;30.63;;;;;;;14.14;47.72;96148.75;5019209;28;20025;-87
2023/12/28 10:54:47;;;;;;;54.47;26.92;;;;;;;14.62;46.83;96189.97;5019480;28;20057;-83
2023/12/28 10:57:39;;;;;;;48.55;26.23;;;;;;;13.58;47.40;96086.00;5018655;28;20044;-83
2023/12/28 11:00:08;;;;;;;;;;;;;;;14.26;46.38;96175.94;5018987;28;20467;-84
2023/12/28 11:02:51;;;;;;;44.13;26.13;;;;;;;13.88;47.57;96153.34;5019931;28;19924;-83
2023/12/28 11:05:19;;;;;;;64.03;30.00;;;;;;;13.50;48.00;96117.41;5037811;28;20032;-83
2023/12/28 11:07:47;;;;;;;56.40;29.42;;;;;;;13.63;47.89;96173.94;5038471;28;20040;-82
2023/12/28 11:10:14;;;;;;;63.00;29.75;;;;;;;12.85;49.20;96141.38;5038628;28;20047;-84
2023/12/28 11:12:40;;;;;;;73.22;29.40;;;;;;;11.98;50.86;96101.19;5038781;28;20087;-83
2023/12/28 11:15:08;;;;;;;64.22;29.65;;;;;;;11.68;50.90;96055.03;5039745;28;20043;-82
2023/12/28 11:17:36;;;;;;;53.83;28.55;;;;;;;12.16;51.46;96145.16;5039916;28;20052;-83
2023/12/28 11:20:05;;;;;;;60.17;28.67;;;;;;;11.47;52.49;96118.69;5037673;28;20036;-83